EWG83A EDDH-LHBP
Flight info
| Callsign | EWG83A |
|---|---|
| Flight time | 1h 20m |
| Altitude | 37000 |
| Route | RAMAR6G/33 RAMAR Z998 RATMO DCT BOLBO DCT OMELO DCT ODNEM DCT NIT M748 ARFOX |
| Aircraft | A320/M-SDE3FGHIRWY/LB1 |
Departure
| Time | 2026-04-26 17:28 |
|---|---|
| Airport | Hamburg Helmut Schmidt Airport (EDDH) |
Arrival
| Time | 2026-04-26 18:48 |
|---|---|
| Airport | Budapest Liszt Ferenc International Airport (LHBP) |
| Time | Latitude | Longitude | Altitude | Speed | Heading |
|---|---|---|---|---|---|
| 2026-04-26 16:54 | 53.63167 | 10.00359 | 49 ft | 0 kts | 86° |
| 2026-04-26 17:21 | 53.63167 | 10.00347 | 48 ft | 3 kts | 86° |
| 2026-04-26 17:21 | 53.63166 | 10.00313 | 48 ft | 3 kts | 86° |
| 2026-04-26 17:21 | 53.63164 | 10.00278 | 48 ft | 3 kts | 86° |
| 2026-04-26 17:22 | 53.63163 | 10.00244 | 45 ft | 3 kts | 86° |
| 2026-04-26 17:22 | 53.63162 | 10.00215 | 45 ft | 3 kts | 100° |
| 2026-04-26 17:22 | 53.63168 | 10.00189 | 46 ft | 3 kts | 157° |
| 2026-04-26 17:22 | 53.63186 | 10.00183 | 47 ft | 3 kts | 175° |
| 2026-04-26 17:23 | 53.63194 | 10.00182 | 46 ft | 0 kts | 175° |
| 2026-04-26 17:25 | 53.63193 | 10.00182 | 48 ft | 1 kts | 175° |
| 2026-04-26 17:26 | 53.63139 | 10.00189 | 48 ft | 11 kts | 175° |
| 2026-04-26 17:26 | 53.63066 | 10.00179 | 45 ft | 10 kts | 201° |
| 2026-04-26 17:26 | 53.63012 | 10.00122 | 48 ft | 9 kts | 213° |
| 2026-04-26 17:26 | 53.62966 | 10.00072 | 48 ft | 7 kts | 213° |
| 2026-04-26 17:27 | 53.62927 | 10.00013 | 48 ft | 10 kts | 238° |
| 2026-04-26 17:27 | 53.62892 | 9.99903 | 47 ft | 11 kts | 242° |
| 2026-04-26 17:27 | 53.62857 | 9.99770 | 45 ft | 13 kts | 268° |
| 2026-04-26 17:27 | 53.62920 | 9.99699 | 45 ft | 14 kts | 333° |
| 2026-04-26 17:28 | 53.63119 | 9.99523 | 45 ft | 63 kts | 333° |
| 2026-04-26 17:28 | 53.63703 | 9.99023 | 48 ft | 123 kts | 333° |
| 2026-04-26 17:28 | 53.64570 | 9.98248 | 305 ft | 145 kts | 329° |
| 2026-04-26 17:28 | 53.65468 | 9.97459 | 1159 ft | 145 kts | 329° |
| 2026-04-26 17:29 | 53.66400 | 9.96664 | 1661 ft | 162 kts | 330° |
| 2026-04-26 17:29 | 53.67109 | 9.96058 | 1947 ft | 177 kts | 330° |
| 2026-04-26 17:29 | 53.68702 | 9.94803 | 2599 ft | 201 kts | 343° |
| 2026-04-26 17:29 | 53.70107 | 9.94647 | 3474 ft | 203 kts | 355° |
| 2026-04-26 17:30 | 53.71518 | 9.94663 | 4334 ft | 203 kts | 355° |
| 2026-04-26 17:30 | 53.72942 | 9.95048 | 5065 ft | 216 kts | 19° |
| 2026-04-26 17:30 | 53.74134 | 9.96736 | 5642 ft | 243 kts | 52° |
| 2026-04-26 17:30 | 53.74969 | 9.99412 | 6015 ft | 270 kts | 58° |
| 2026-04-26 17:31 | 53.75802 | 10.02342 | 6671 ft | 281 kts | 59° |
| 2026-04-26 17:31 | 53.76644 | 10.05356 | 7447 ft | 286 kts | 58° |
| 2026-04-26 17:31 | 53.77500 | 10.08413 | 8245 ft | 290 kts | 58° |
| 2026-04-26 17:31 | 53.78078 | 10.10462 | 8778 ft | 293 kts | 58° |
| 2026-04-26 17:32 | 53.78740 | 10.12788 | 9352 ft | 296 kts | 57° |
| 2026-04-26 17:32 | 53.79632 | 10.15905 | 10155 ft | 300 kts | 57° |
| 2026-04-26 17:32 | 53.80569 | 10.19171 | 10695 ft | 314 kts | 57° |
| 2026-04-26 17:32 | 53.81549 | 10.22562 | 10914 ft | 337 kts | 57° |
| 2026-04-26 17:33 | 53.82518 | 10.26326 | 11148 ft | 364 kts | 69° |
| 2026-04-26 17:33 | 53.82753 | 10.30698 | 11685 ft | 384 kts | 92° |
| 2026-04-26 17:33 | 53.81967 | 10.35070 | 12338 ft | 397 kts | 118° |
| 2026-04-26 17:34 | 53.78439 | 10.42379 | 13707 ft | 406 kts | 132° |
| 2026-04-26 17:34 | 53.76541 | 10.45956 | 14331 ft | 410 kts | 132° |
| 2026-04-26 17:34 | 53.74618 | 10.49550 | 14927 ft | 414 kts | 132° |
| 2026-04-26 17:34 | 53.72680 | 10.53174 | 15534 ft | 417 kts | 132° |
| 2026-04-26 17:35 | 53.70734 | 10.56833 | 16130 ft | 421 kts | 132° |
| 2026-04-26 17:35 | 53.68776 | 10.60528 | 16716 ft | 425 kts | 132° |
| 2026-04-26 17:35 | 53.66800 | 10.64264 | 17298 ft | 428 kts | 132° |
| 2026-04-26 17:35 | 53.64836 | 10.67976 | 17892 ft | 432 kts | 132° |
| 2026-04-26 17:36 | 53.62828 | 10.71765 | 18479 ft | 435 kts | 132° |
| 2026-04-26 17:36 | 53.60793 | 10.75590 | 19013 ft | 439 kts | 132° |
| 2026-04-26 17:36 | 53.58745 | 10.79435 | 19499 ft | 442 kts | 133° |
| 2026-04-26 17:36 | 53.56679 | 10.83308 | 20029 ft | 445 kts | 133° |
| 2026-04-26 17:37 | 53.54625 | 10.87148 | 20526 ft | 449 kts | 133° |
| 2026-04-26 17:37 | 53.52526 | 10.91062 | 21023 ft | 452 kts | 133° |
| 2026-04-26 17:37 | 53.50412 | 10.95001 | 21496 ft | 456 kts | 133° |
| 2026-04-26 17:38 | 53.46140 | 11.02956 | 22465 ft | 461 kts | 133° |
| 2026-04-26 17:38 | 53.43981 | 11.06970 | 22927 ft | 465 kts | 133° |
| 2026-04-26 17:38 | 53.41808 | 11.11001 | 23233 ft | 467 kts | 133° |
| 2026-04-26 17:38 | 53.39623 | 11.15042 | 23292 ft | 467 kts | 133° |
| 2026-04-26 17:39 | 53.37444 | 11.19065 | 23298 ft | 466 kts | 133° |
| 2026-04-26 17:39 | 53.35290 | 11.23035 | 23296 ft | 466 kts | 133° |
| 2026-04-26 17:39 | 53.33107 | 11.27054 | 23295 ft | 466 kts | 133° |
| 2026-04-26 17:39 | 53.30930 | 11.31057 | 23299 ft | 465 kts | 133° |
| 2026-04-26 17:40 | 53.28756 | 11.35045 | 23297 ft | 465 kts | 133° |
| 2026-04-26 17:40 | 53.27308 | 11.37694 | 23298 ft | 465 kts | 134° |
| 2026-04-26 17:40 | 53.24297 | 11.42871 | 23296 ft | 464 kts | 137° |
| 2026-04-26 17:40 | 53.21948 | 11.46550 | 23299 ft | 463 kts | 139° |
| 2026-04-26 17:41 | 53.19548 | 11.50135 | 23295 ft | 462 kts | 140° |
| 2026-04-26 17:41 | 53.17129 | 11.53677 | 23300 ft | 462 kts | 141° |
| 2026-04-26 17:41 | 53.14746 | 11.57175 | 23292 ft | 462 kts | 140° |
| 2026-04-26 17:41 | 53.12352 | 11.60746 | 23301 ft | 462 kts | 140° |
| 2026-04-26 17:42 | 53.09975 | 11.64347 | 23298 ft | 462 kts | 139° |
| 2026-04-26 17:42 | 53.07615 | 11.67960 | 23296 ft | 462 kts | 139° |
| 2026-04-26 17:42 | 53.05256 | 11.71587 | 23295 ft | 461 kts | 139° |
| 2026-04-26 17:42 | 53.02901 | 11.75197 | 23299 ft | 461 kts | 139° |
| 2026-04-26 17:43 | 53.00543 | 11.78796 | 23297 ft | 460 kts | 139° |
| 2026-04-26 17:43 | 52.98331 | 11.82642 | 23296 ft | 462 kts | 130° |
| 2026-04-26 17:43 | 52.96380 | 11.86874 | 23296 ft | 462 kts | 127° |
| 2026-04-26 17:43 | 52.94446 | 11.91123 | 23301 ft | 461 kts | 128° |
| 2026-04-26 17:44 | 52.92510 | 11.95363 | 23382 ft | 463 kts | 128° |
| 2026-04-26 17:44 | 52.90360 | 11.99349 | 23851 ft | 463 kts | 141° |
| 2026-04-26 17:44 | 52.87733 | 12.02425 | 24229 ft | 462 kts | 150° |
| 2026-04-26 17:44 | 52.85001 | 12.05253 | 24600 ft | 464 kts | 151° |
| 2026-04-26 17:45 | 52.82246 | 12.08067 | 24967 ft | 466 kts | 151° |
| 2026-04-26 17:45 | 52.79515 | 12.10834 | 25316 ft | 468 kts | 151° |
| 2026-04-26 17:45 | 52.76728 | 12.13650 | 25659 ft | 470 kts | 151° |
| 2026-04-26 17:45 | 52.73933 | 12.16473 | 26011 ft | 472 kts | 151° |
| 2026-04-26 17:46 | 52.71125 | 12.19307 | 26352 ft | 474 kts | 152° |
| 2026-04-26 17:46 | 52.68312 | 12.22147 | 26677 ft | 476 kts | 152° |
| 2026-04-26 17:46 | 52.65483 | 12.25005 | 27000 ft | 478 kts | 151° |
| 2026-04-26 17:46 | 52.62637 | 12.27882 | 27329 ft | 479 kts | 151° |
| 2026-04-26 17:47 | 52.59794 | 12.30757 | 27641 ft | 481 kts | 151° |
| 2026-04-26 17:47 | 52.57904 | 12.32666 | 27841 ft | 482 kts | 151° |
| 2026-04-26 17:47 | 52.54064 | 12.36536 | 28241 ft | 485 kts | 152° |
| 2026-04-26 17:47 | 52.51188 | 12.39425 | 28541 ft | 486 kts | 152° |
| 2026-04-26 17:48 | 52.48296 | 12.42320 | 28824 ft | 488 kts | 152° |
| 2026-04-26 17:48 | 52.45386 | 12.45226 | 29098 ft | 489 kts | 152° |
| 2026-04-26 17:48 | 52.42474 | 12.48130 | 29363 ft | 491 kts | 152° |
| 2026-04-26 17:48 | 52.39548 | 12.51043 | 29608 ft | 492 kts | 152° |
| 2026-04-26 17:49 | 52.36618 | 12.53959 | 29845 ft | 494 kts | 152° |
| 2026-04-26 17:49 | 52.33719 | 12.56843 | 30130 ft | 494 kts | 152° |
| 2026-04-26 17:49 | 52.30786 | 12.59756 | 30465 ft | 493 kts | 152° |
| 2026-04-26 17:49 | 52.27851 | 12.62666 | 30766 ft | 492 kts | 152° |
| 2026-04-26 17:50 | 52.24926 | 12.65567 | 31051 ft | 491 kts | 152° |
| 2026-04-26 17:50 | 52.22008 | 12.68458 | 31328 ft | 490 kts | 152° |
| 2026-04-26 17:50 | 52.19086 | 12.71342 | 31609 ft | 490 kts | 152° |
| 2026-04-26 17:50 | 52.16169 | 12.74211 | 31901 ft | 489 kts | 152° |
| 2026-04-26 17:51 | 52.13256 | 12.77072 | 32202 ft | 488 kts | 152° |
| 2026-04-26 17:51 | 52.10348 | 12.79921 | 32493 ft | 487 kts | 152° |
| 2026-04-26 17:51 | 52.07452 | 12.82751 | 32791 ft | 486 kts | 152° |
| 2026-04-26 17:51 | 52.04559 | 12.85579 | 33090 ft | 485 kts | 152° |
| 2026-04-26 17:52 | 52.01669 | 12.88403 | 33384 ft | 484 kts | 152° |
| 2026-04-26 17:52 | 51.98789 | 12.91217 | 33665 ft | 483 kts | 152° |
| 2026-04-26 17:52 | 51.95948 | 12.93989 | 33950 ft | 482 kts | 152° |
| 2026-04-26 17:52 | 51.93069 | 12.96793 | 34245 ft | 482 kts | 152° |
| 2026-04-26 17:53 | 51.90195 | 12.99588 | 34497 ft | 481 kts | 152° |
| 2026-04-26 17:53 | 51.87328 | 13.02367 | 34743 ft | 480 kts | 152° |
| 2026-04-26 17:53 | 51.84461 | 13.05137 | 34976 ft | 480 kts | 152° |
| 2026-04-26 17:54 | 51.78733 | 13.10665 | 35437 ft | 479 kts | 152° |
| 2026-04-26 17:54 | 51.75883 | 13.13417 | 35640 ft | 478 kts | 152° |
| 2026-04-26 17:54 | 51.73029 | 13.16170 | 35854 ft | 478 kts | 152° |
| 2026-04-26 17:54 | 51.70171 | 13.18918 | 36056 ft | 477 kts | 152° |
| 2026-04-26 17:55 | 51.67320 | 13.21654 | 36256 ft | 477 kts | 152° |
| 2026-04-26 17:55 | 51.64470 | 13.24390 | 36450 ft | 477 kts | 152° |
| 2026-04-26 17:55 | 51.61625 | 13.27121 | 36632 ft | 476 kts | 152° |
| 2026-04-26 17:55 | 51.58773 | 13.29849 | 36824 ft | 476 kts | 152° |
| 2026-04-26 17:56 | 51.55929 | 13.32561 | 37006 ft | 475 kts | 152° |
| 2026-04-26 17:56 | 51.50244 | 13.37973 | 37285 ft | 476 kts | 152° |
| 2026-04-26 17:57 | 51.44573 | 13.43350 | 37308 ft | 476 kts | 152° |
| 2026-04-26 17:57 | 51.38867 | 13.48744 | 37295 ft | 476 kts | 152° |
| 2026-04-26 17:58 | 51.27451 | 13.59501 | 37302 ft | 476 kts | 152° |
| 2026-04-26 17:59 | 51.18886 | 13.67540 | 37302 ft | 476 kts | 152° |
| 2026-04-26 17:59 | 51.13202 | 13.72847 | 37304 ft | 476 kts | 152° |
| 2026-04-26 18:00 | 51.07474 | 13.78169 | 37307 ft | 477 kts | 152° |
| 2026-04-26 18:00 | 51.01738 | 13.83489 | 37309 ft | 477 kts | 152° |
| 2026-04-26 18:01 | 50.96016 | 13.88806 | 37314 ft | 477 kts | 152° |
| 2026-04-26 18:01 | 50.90277 | 13.94110 | 37315 ft | 477 kts | 152° |
| 2026-04-26 18:02 | 50.86480 | 13.97607 | 37315 ft | 476 kts | 151° |
| 2026-04-26 18:02 | 50.82088 | 14.02988 | 37315 ft | 479 kts | 135° |
| 2026-04-26 18:02 | 50.79812 | 14.06822 | 37310 ft | 479 kts | 134° |
| 2026-04-26 18:03 | 50.75270 | 14.14529 | 37306 ft | 479 kts | 134° |
| 2026-04-26 18:03 | 50.70747 | 14.22161 | 37302 ft | 479 kts | 134° |
| 2026-04-26 18:04 | 50.66185 | 14.29830 | 37305 ft | 479 kts | 134° |
| 2026-04-26 18:05 | 50.59337 | 14.41305 | 37305 ft | 479 kts | 134° |
| 2026-04-26 18:05 | 50.54766 | 14.48950 | 37307 ft | 480 kts | 134° |
| 2026-04-26 18:06 | 50.50186 | 14.56574 | 37305 ft | 479 kts | 135° |
| 2026-04-26 18:06 | 50.45604 | 14.64170 | 37299 ft | 479 kts | 135° |
| 2026-04-26 18:07 | 50.41037 | 14.71744 | 37294 ft | 479 kts | 135° |
| 2026-04-26 18:07 | 50.36448 | 14.79332 | 37291 ft | 479 kts | 135° |
| 2026-04-26 18:08 | 50.31848 | 14.86904 | 37288 ft | 478 kts | 135° |
| 2026-04-26 18:08 | 50.27255 | 14.94435 | 37282 ft | 478 kts | 135° |
| 2026-04-26 18:09 | 50.22656 | 15.01938 | 37282 ft | 478 kts | 135° |
| 2026-04-26 18:09 | 50.18047 | 15.09440 | 37282 ft | 479 kts | 135° |
| 2026-04-26 18:10 | 50.13471 | 15.16874 | 37273 ft | 479 kts | 135° |
| 2026-04-26 18:10 | 50.08858 | 15.24361 | 37275 ft | 479 kts | 135° |
| 2026-04-26 18:11 | 50.04232 | 15.31849 | 37278 ft | 479 kts | 136° |
| 2026-04-26 18:11 | 50.00379 | 15.38052 | 37277 ft | 480 kts | 136° |
| 2026-04-26 18:12 | 49.95742 | 15.45511 | 37278 ft | 480 kts | 136° |
| 2026-04-26 18:12 | 49.91092 | 15.52962 | 37277 ft | 480 kts | 136° |
| 2026-04-26 18:13 | 49.86433 | 15.60396 | 37282 ft | 480 kts | 136° |
| 2026-04-26 18:13 | 49.81805 | 15.67780 | 37280 ft | 480 kts | 136° |
| 2026-04-26 18:14 | 49.77152 | 15.75196 | 37276 ft | 480 kts | 136° |
| 2026-04-26 18:14 | 49.72480 | 15.82593 | 37279 ft | 481 kts | 136° |
| 2026-04-26 18:15 | 49.67792 | 15.89969 | 37283 ft | 481 kts | 136° |
| 2026-04-26 18:15 | 49.63109 | 15.97337 | 37282 ft | 481 kts | 136° |
| 2026-04-26 18:16 | 49.58416 | 16.04700 | 37280 ft | 481 kts | 136° |
| 2026-04-26 18:16 | 49.51389 | 16.15706 | 37276 ft | 480 kts | 137° |
| 2026-04-26 18:17 | 49.46700 | 16.23016 | 37272 ft | 480 kts | 137° |
| 2026-04-26 18:17 | 49.42011 | 16.30316 | 37269 ft | 480 kts | 137° |
| 2026-04-26 18:18 | 49.37316 | 16.37576 | 37271 ft | 479 kts | 137° |
| 2026-04-26 18:18 | 49.32636 | 16.44802 | 37269 ft | 479 kts | 137° |
| 2026-04-26 18:19 | 49.27931 | 16.52049 | 37263 ft | 479 kts | 137° |
| 2026-04-26 18:19 | 49.23230 | 16.59274 | 37263 ft | 479 kts | 137° |
| 2026-04-26 18:20 | 49.18534 | 16.66470 | 37263 ft | 478 kts | 137° |
| 2026-04-26 18:20 | 49.14614 | 16.72465 | 37258 ft | 478 kts | 137° |
| 2026-04-26 18:21 | 49.09106 | 16.80854 | 37261 ft | 478 kts | 137° |
| 2026-04-26 18:21 | 49.04387 | 16.88032 | 37262 ft | 478 kts | 138° |
| 2026-04-26 18:22 | 49.02032 | 16.91603 | 37075 ft | 478 kts | 138° |
| 2026-04-26 18:22 | 48.99678 | 16.95169 | 36808 ft | 476 kts | 138° |
| 2026-04-26 18:22 | 48.97357 | 16.98673 | 36550 ft | 476 kts | 138° |
| 2026-04-26 18:22 | 48.95007 | 17.02214 | 36288 ft | 477 kts | 138° |
| 2026-04-26 18:23 | 48.92645 | 17.05775 | 36033 ft | 478 kts | 138° |
| 2026-04-26 18:23 | 48.90292 | 17.09320 | 35776 ft | 478 kts | 138° |
| 2026-04-26 18:23 | 48.87925 | 17.12875 | 35529 ft | 479 kts | 138° |
| 2026-04-26 18:23 | 48.85547 | 17.16436 | 35286 ft | 480 kts | 138° |
| 2026-04-26 18:24 | 48.83179 | 17.20035 | 35030 ft | 481 kts | 137° |
| 2026-04-26 18:24 | 48.80862 | 17.23678 | 34675 ft | 479 kts | 136° |
| 2026-04-26 18:24 | 48.78575 | 17.27347 | 33384 ft | 479 kts | 135° |
| 2026-04-26 18:24 | 48.76280 | 17.31058 | 31893 ft | 485 kts | 135° |
| 2026-04-26 18:25 | 48.73950 | 17.34820 | 30971 ft | 491 kts | 135° |
| 2026-04-26 18:25 | 48.71602 | 17.38588 | 30701 ft | 494 kts | 135° |
| 2026-04-26 18:25 | 48.69231 | 17.42358 | 30457 ft | 496 kts | 135° |
| 2026-04-26 18:25 | 48.66838 | 17.46137 | 30195 ft | 497 kts | 135° |
| 2026-04-26 18:26 | 48.64442 | 17.49909 | 29909 ft | 498 kts | 135° |
| 2026-04-26 18:26 | 48.62038 | 17.53690 | 29626 ft | 498 kts | 135° |
| 2026-04-26 18:26 | 48.59672 | 17.57404 | 29344 ft | 497 kts | 135° |
| 2026-04-26 18:26 | 48.57279 | 17.61158 | 29065 ft | 495 kts | 135° |
| 2026-04-26 18:27 | 48.54900 | 17.64886 | 28793 ft | 492 kts | 135° |
| 2026-04-26 18:27 | 48.52524 | 17.68601 | 28516 ft | 490 kts | 135° |
| 2026-04-26 18:27 | 48.50164 | 17.72292 | 28251 ft | 488 kts | 135° |
| 2026-04-26 18:27 | 48.47810 | 17.75971 | 27987 ft | 486 kts | 135° |
| 2026-04-26 18:28 | 48.45465 | 17.79627 | 27712 ft | 484 kts | 135° |
| 2026-04-26 18:28 | 48.43125 | 17.83263 | 27450 ft | 482 kts | 135° |
| 2026-04-26 18:28 | 48.40796 | 17.86876 | 27189 ft | 480 kts | 135° |
| 2026-04-26 18:28 | 48.38470 | 17.90485 | 26926 ft | 478 kts | 135° |
| 2026-04-26 18:29 | 48.36157 | 17.94077 | 26672 ft | 477 kts | 135° |
| 2026-04-26 18:29 | 48.33882 | 17.97605 | 26420 ft | 475 kts | 135° |
| 2026-04-26 18:29 | 48.31579 | 18.01160 | 26169 ft | 473 kts | 135° |
| 2026-04-26 18:29 | 48.29289 | 18.04686 | 25921 ft | 471 kts | 135° |
| 2026-04-26 18:30 | 48.27034 | 18.08235 | 25673 ft | 470 kts | 134° |
| 2026-04-26 18:30 | 48.24832 | 18.11851 | 25429 ft | 468 kts | 133° |
| 2026-04-26 18:30 | 48.22668 | 18.15501 | 25179 ft | 466 kts | 132° |
| 2026-04-26 18:30 | 48.20527 | 18.19150 | 24941 ft | 465 kts | 132° |
| 2026-04-26 18:31 | 48.18396 | 18.22784 | 24704 ft | 463 kts | 132° |
| 2026-04-26 18:31 | 48.16264 | 18.26390 | 24468 ft | 462 kts | 132° |
| 2026-04-26 18:31 | 48.14130 | 18.29965 | 24233 ft | 460 kts | 133° |
| 2026-04-26 18:31 | 48.11988 | 18.33515 | 23999 ft | 459 kts | 133° |
| 2026-04-26 18:32 | 48.09860 | 18.37040 | 23566 ft | 454 kts | 132° |
| 2026-04-26 18:32 | 48.07755 | 18.40547 | 22946 ft | 450 kts | 132° |
| 2026-04-26 18:32 | 48.05698 | 18.43980 | 22369 ft | 447 kts | 132° |
| 2026-04-26 18:32 | 48.03635 | 18.47426 | 21815 ft | 443 kts | 131° |
| 2026-04-26 18:33 | 48.01587 | 18.50843 | 21270 ft | 439 kts | 131° |
| 2026-04-26 18:33 | 47.99553 | 18.54233 | 20744 ft | 436 kts | 131° |
| 2026-04-26 18:33 | 47.97254 | 18.58046 | 20172 ft | 433 kts | 131° |
| 2026-04-26 18:33 | 47.95244 | 18.61366 | 19677 ft | 429 kts | 131° |
| 2026-04-26 18:34 | 47.93246 | 18.64665 | 19194 ft | 426 kts | 131° |
| 2026-04-26 18:34 | 47.91264 | 18.67942 | 18710 ft | 424 kts | 131° |
| 2026-04-26 18:34 | 47.89320 | 18.71156 | 18216 ft | 421 kts | 131° |
| 2026-04-26 18:34 | 47.87365 | 18.74381 | 17688 ft | 417 kts | 131° |
| 2026-04-26 18:35 | 47.85426 | 18.77573 | 17185 ft | 414 kts | 131° |
| 2026-04-26 18:35 | 47.83502 | 18.80733 | 16707 ft | 410 kts | 131° |
| 2026-04-26 18:35 | 47.81591 | 18.83869 | 16226 ft | 407 kts | 131° |
| 2026-04-26 18:35 | 47.79691 | 18.86979 | 15744 ft | 404 kts | 131° |
| 2026-04-26 18:36 | 47.77816 | 18.90047 | 15286 ft | 400 kts | 131° |
| 2026-04-26 18:36 | 47.75949 | 18.93103 | 14817 ft | 397 kts | 131° |
| 2026-04-26 18:36 | 47.74102 | 18.96131 | 14374 ft | 394 kts | 131° |
| 2026-04-26 18:36 | 47.72268 | 18.99130 | 13914 ft | 391 kts | 131° |
| 2026-04-26 18:37 | 47.70445 | 19.02103 | 13394 ft | 388 kts | 131° |
| 2026-04-26 18:37 | 47.68633 | 19.05050 | 12875 ft | 385 kts | 131° |
| 2026-04-26 18:37 | 47.66836 | 19.07974 | 12370 ft | 382 kts | 131° |
| 2026-04-26 18:37 | 47.65055 | 19.10872 | 11855 ft | 379 kts | 131° |
| 2026-04-26 18:38 | 47.63285 | 19.13750 | 11349 ft | 376 kts | 131° |
| 2026-04-26 18:38 | 47.61531 | 19.16598 | 10843 ft | 373 kts | 131° |
| 2026-04-26 18:38 | 47.59783 | 19.19425 | 10437 ft | 368 kts | 131° |
| 2026-04-26 18:38 | 47.58087 | 19.22158 | 10315 ft | 354 kts | 131° |
| 2026-04-26 18:39 | 47.56451 | 19.24791 | 10191 ft | 341 kts | 131° |
| 2026-04-26 18:39 | 47.54880 | 19.27325 | 10065 ft | 329 kts | 131° |
| 2026-04-26 18:39 | 47.53380 | 19.29745 | 9924 ft | 318 kts | 131° |
| 2026-04-26 18:39 | 47.51904 | 19.32126 | 9645 ft | 312 kts | 131° |
| 2026-04-26 18:40 | 47.50446 | 19.34481 | 9317 ft | 308 kts | 131° |
| 2026-04-26 18:40 | 47.49001 | 19.36813 | 8962 ft | 305 kts | 130° |
| 2026-04-26 18:40 | 47.47578 | 19.39107 | 8631 ft | 301 kts | 130° |
| 2026-04-26 18:40 | 47.46172 | 19.41370 | 8301 ft | 297 kts | 131° |
| 2026-04-26 18:41 | 47.44780 | 19.43604 | 7980 ft | 294 kts | 131° |
| 2026-04-26 18:41 | 47.43403 | 19.45806 | 7649 ft | 290 kts | 131° |
| 2026-04-26 18:41 | 47.42046 | 19.47974 | 7324 ft | 286 kts | 130° |
| 2026-04-26 18:41 | 47.40706 | 19.50116 | 7009 ft | 281 kts | 131° |
| 2026-04-26 18:42 | 47.39825 | 19.51516 | 6798 ft | 279 kts | 131° |
| 2026-04-26 18:42 | 47.38537 | 19.53573 | 6527 ft | 263 kts | 130° |
| 2026-04-26 18:42 | 47.37237 | 19.55383 | 6128 ft | 255 kts | 147° |
| 2026-04-26 18:42 | 47.35601 | 19.56153 | 5817 ft | 243 kts | 177° |
| 2026-04-26 18:43 | 47.33980 | 19.55736 | 5387 ft | 236 kts | 206° |
| 2026-04-26 18:43 | 47.32676 | 19.54321 | 4916 ft | 232 kts | 225° |
| 2026-04-26 18:43 | 47.31493 | 19.52700 | 4428 ft | 231 kts | 225° |
| 2026-04-26 18:43 | 47.30558 | 19.50869 | 3967 ft | 223 kts | 257° |
| 2026-04-26 18:44 | 47.30551 | 19.48755 | 3812 ft | 198 kts | 293° |
| 2026-04-26 18:44 | 47.31261 | 19.47099 | 3640 ft | 190 kts | 316° |
| 2026-04-26 18:44 | 47.32157 | 19.45675 | 3419 ft | 189 kts | 316° |
| 2026-04-26 18:44 | 47.33053 | 19.44249 | 3158 ft | 189 kts | 316° |
| 2026-04-26 18:45 | 47.33947 | 19.42818 | 2896 ft | 189 kts | 316° |
| 2026-04-26 18:45 | 47.34834 | 19.41394 | 2655 ft | 188 kts | 316° |
| 2026-04-26 18:45 | 47.35696 | 19.40008 | 2397 ft | 177 kts | 316° |
| 2026-04-26 18:45 | 47.36495 | 19.38721 | 2148 ft | 162 kts | 317° |
| 2026-04-26 18:46 | 47.37221 | 19.37552 | 1935 ft | 148 kts | 317° |
| 2026-04-26 18:46 | 47.37885 | 19.36484 | 1756 ft | 137 kts | 317° |
| 2026-04-26 18:46 | 47.38519 | 19.35466 | 1559 ft | 133 kts | 317° |
| 2026-04-26 18:46 | 47.39147 | 19.34441 | 1354 ft | 136 kts | 315° |
| 2026-04-26 18:47 | 47.39777 | 19.33365 | 1182 ft | 137 kts | 314° |
| 2026-04-26 18:47 | 47.40451 | 19.32356 | 983 ft | 137 kts | 316° |
| 2026-04-26 18:47 | 47.41079 | 19.31362 | 794 ft | 130 kts | 312° |
| 2026-04-26 18:47 | 47.41684 | 19.30367 | 665 ft | 133 kts | 313° |
| 2026-04-26 18:48 | 47.42313 | 19.29355 | 490 ft | 133 kts | 313° |
| 2026-04-26 18:48 | 47.42903 | 19.28403 | 449 ft | 111 kts | 313° |
| 2026-04-26 18:48 | 47.43308 | 19.27751 | 462 ft | 61 kts | 313° |
| 2026-04-26 18:48 | 47.43546 | 19.27370 | 471 ft | 46 kts | 312° |
| 2026-04-26 18:49 | 47.43702 | 19.27072 | 474 ft | 29 kts | 298° |
| 2026-04-26 18:49 | 47.43754 | 19.26820 | 479 ft | 25 kts | 279° |
| 2026-04-26 18:49 | 47.43783 | 19.26642 | 479 ft | 10 kts | 284° |
| 2026-04-26 18:49 | 47.43799 | 19.26538 | 479 ft | 11 kts | 282° |
| 2026-04-26 18:50 | 47.43778 | 19.26451 | 480 ft | 10 kts | 208° |
| 2026-04-26 18:50 | 47.43734 | 19.26398 | 474 ft | 5 kts | 223° |
| 2026-04-26 18:50 | 47.43709 | 19.26364 | 482 ft | 5 kts | 223° |
| 2026-04-26 18:50 | 47.43698 | 19.26348 | 477 ft | 0 kts | 223° |
| 2026-04-26 18:51 | 47.43696 | 19.26347 | 477 ft | 2 kts | 215° |
| 2026-04-26 18:51 | 47.43648 | 19.26379 | 477 ft | 14 kts | 135° |
| 2026-04-26 18:51 | 47.43571 | 19.26500 | 476 ft | 16 kts | 132° |
| 2026-04-26 18:52 | 47.43494 | 19.26626 | 474 ft | 16 kts | 132° |
| 2026-04-26 18:52 | 47.43450 | 19.26652 | 475 ft | 5 kts | 221° |
| 2026-04-26 18:52 | 47.43424 | 19.26617 | 472 ft | 5 kts | 222° |
| 2026-04-26 18:52 | 47.43422 | 19.26615 | 473 ft | 0 kts | 222° |